createdAt,value
2018-11-13T00:00:28.219Z,10.22
2018-11-13T00:02:56.774Z,10.11
2018-11-13T00:05:25.629Z,10.02
2018-11-13T00:07:54.293Z,10.09
2018-11-13T00:10:23.244Z,10.08
2018-11-13T00:12:51.939Z,10.08
2018-11-13T00:15:20.748Z,10.16
2018-11-13T00:17:49.098Z,10.20
2018-11-13T00:20:18.482Z,10.13
2018-11-13T00:22:46.853Z,10.15
2018-11-13T00:25:16.232Z,10.08
2018-11-13T00:27:44.824Z,10.00
2018-11-13T00:30:15.536Z,9.97
2018-11-13T00:32:44.787Z,9.99
2018-11-13T00:35:15.569Z,9.93
2018-11-13T00:37:44.424Z,9.97
2018-11-13T00:40:14.685Z,10.00
2018-11-13T00:42:43.996Z,10.20
2018-11-13T00:45:13.408Z,10.13
2018-11-13T00:47:41.752Z,10.18
2018-11-13T00:50:11.678Z,10.12
2018-11-13T00:52:40.354Z,10.05
2018-11-13T00:55:08.920Z,10.12
2018-11-13T00:57:38.319Z,10.16
2018-11-13T01:00:10.305Z,10.20
2018-11-13T01:02:38.574Z,10.45
2018-11-13T01:05:09.037Z,10.29
2018-11-13T01:07:37.808Z,10.28
2018-11-13T01:10:07.459Z,10.27
2018-11-13T01:12:35.833Z,10.33
2018-11-13T01:15:04.166Z,10.38
2018-11-13T01:17:32.780Z,10.41
2018-11-13T01:20:01.172Z,10.42
2018-11-13T01:22:29.604Z,10.43
2018-11-13T01:24:58.655Z,10.48
2018-11-13T01:27:27.259Z,10.24
2018-11-13T01:29:55.468Z,10.23
2018-11-13T01:32:24.559Z,10.21
2018-11-13T01:34:53.007Z,10.29
2018-11-13T01:37:21.379Z,10.25
2018-11-13T01:39:49.644Z,10.12
2018-11-13T01:42:17.891Z,10.13
2018-11-13T01:44:46.107Z,10.10
2018-11-13T01:47:14.401Z,10.06
2018-11-13T01:49:42.673Z,10.26
2018-11-13T01:52:10.915Z,10.27
2018-11-13T01:54:39.195Z,10.09
2018-11-13T01:57:07.457Z,10.11
2018-11-13T01:59:35.751Z,10.13
2018-11-13T02:02:04.281Z,10.19
2018-11-13T02:04:33.094Z,10.13
2018-11-13T02:07:01.293Z,10.12
2018-11-13T02:09:29.482Z,10.13
2018-11-13T02:11:57.778Z,10.11
2018-11-13T02:14:25.970Z,10.12
2018-11-13T02:16:54.167Z,10.09
2018-11-13T02:19:22.515Z,10.12
2018-11-13T02:21:50.800Z,10.31
2018-11-13T02:24:19.093Z,10.23
2018-11-13T02:26:47.363Z,10.09
2018-11-13T02:29:16.295Z,10.16
2018-11-13T02:31:44.514Z,10.12
2018-11-13T02:34:12.692Z,10.20
2018-11-13T02:36:40.879Z,10.19
2018-11-13T02:39:10.786Z,10.22
2018-11-13T02:41:39.127Z,10.27
2018-11-13T02:44:07.656Z,10.30
2018-11-13T02:46:36.061Z,10.26
2018-11-13T02:49:04.656Z,10.28
2018-11-13T02:51:32.863Z,10.25
2018-11-13T02:54:01.084Z,10.22
2018-11-13T02:56:29.275Z,10.15
2018-11-13T02:58:57.575Z,10.11
2018-11-13T03:01:25.800Z,10.07
2018-11-13T03:03:53.980Z,10.01
2018-11-13T03:06:22.170Z,9.90
2018-11-13T03:08:50.364Z,9.98
2018-11-13T03:11:18.668Z,10.14
2018-11-13T03:13:46.969Z,10.05
2018-11-13T03:16:15.175Z,10.08
2018-11-13T03:18:43.488Z,9.95
2018-11-13T03:21:11.714Z,9.90
2018-11-13T03:23:39.909Z,9.91
2018-11-13T03:26:08.382Z,9.92
2018-11-13T03:28:36.776Z,9.92
2018-11-13T03:31:05.169Z,9.98
2018-11-13T03:33:33.365Z,10.04
2018-11-13T03:36:01.563Z,10.07
2018-11-13T03:38:29.755Z,10.05
2018-11-13T03:40:58.032Z,10.03
2018-11-13T03:43:26.231Z,10.16
2018-11-13T03:45:54.563Z,10.09
2018-11-13T03:48:22.819Z,10.07
2018-11-13T03:50:51.022Z,10.01
2018-11-13T03:53:19.238Z,9.96
2018-11-13T03:55:47.407Z,10.05
2018-11-13T03:58:15.631Z,10.10
2018-11-13T04:00:43.832Z,10.04
2018-11-13T04:03:12.029Z,9.99
2018-11-13T04:05:40.312Z,10.15
2018-11-13T04:08:08.604Z,10.05
2018-11-13T04:10:40.217Z,10.07
2018-11-13T04:13:08.508Z,10.14
2018-11-13T04:15:36.701Z,10.26
2018-11-13T04:18:05.088Z,10.19
2018-11-13T04:20:33.294Z,10.13
2018-11-13T04:23:02.411Z,10.31
2018-11-13T04:25:30.598Z,10.25
2018-11-13T04:27:58.797Z,10.29
2018-11-13T04:30:27.134Z,10.28
2018-11-13T04:32:55.273Z,10.22
2018-11-13T04:35:23.486Z,10.20
2018-11-13T04:37:51.791Z,10.30
2018-11-13T04:40:20.863Z,10.29
2018-11-13T04:42:50.256Z,10.27
2018-11-13T04:45:20.163Z,10.32
2018-11-13T04:47:49.078Z,10.31
2018-11-13T04:50:18.151Z,10.33
2018-11-13T04:52:46.383Z,10.27
2018-11-13T04:55:14.913Z,10.31
2018-11-13T04:57:43.957Z,10.28
2018-11-13T05:00:16.892Z,10.40
2018-11-13T05:02:45.907Z,10.38
2018-11-13T05:05:15.076Z,10.34
2018-11-13T05:07:45.518Z,10.29
2018-11-13T05:10:13.839Z,10.24
2018-11-13T05:12:43.199Z,10.20
2018-11-13T05:15:11.552Z,10.22
2018-11-13T05:17:40.655Z,10.22
2018-11-13T05:20:09.665Z,10.19
2018-11-13T05:22:37.856Z,10.24
2018-11-13T05:25:09.077Z,10.22
2018-11-13T05:27:37.460Z,10.13
2018-11-13T05:30:07.343Z,10.13
2018-11-13T05:32:35.548Z,10.19
2018-11-13T05:35:03.867Z,10.28
2018-11-13T05:37:32.066Z,10.29
2018-11-13T05:40:00.287Z,10.18
2018-11-13T05:42:28.580Z,10.09
2018-11-13T05:44:56.831Z,10.04
2018-11-13T05:47:25.698Z,9.93
2018-11-13T05:49:53.871Z,9.77
2018-11-13T05:52:22.063Z,9.70
2018-11-13T05:54:50.292Z,9.75
2018-11-13T05:57:18.491Z,9.88
2018-11-13T05:59:47.919Z,9.96
2018-11-13T06:02:16.098Z,9.83
2018-11-13T06:04:44.278Z,9.81
2018-11-13T06:07:12.477Z,9.83
2018-11-13T06:09:40.668Z,9.76
2018-11-13T06:12:09.782Z,9.67
2018-11-13T06:14:37.976Z,9.81
2018-11-13T06:17:06.163Z,9.87
2018-11-13T06:19:34.463Z,10.02
2018-11-13T06:22:02.733Z,9.98
2018-11-13T06:24:30.916Z,9.93
2018-11-13T06:26:59.111Z,9.96
2018-11-13T06:29:27.325Z,9.95
2018-11-13T06:31:55.558Z,9.97
2018-11-13T06:34:23.743Z,9.97
2018-11-13T06:36:51.928Z,9.91
2018-11-13T06:39:20.112Z,9.87
2018-11-13T06:41:48.415Z,9.87
2018-11-13T06:44:16.610Z,9.93
2018-11-13T06:46:44.796Z,9.92
2018-11-13T06:49:13.004Z,9.88
2018-11-13T06:51:41.220Z,9.90
2018-11-13T06:54:20.683Z,10.02
2018-11-13T06:56:48.951Z,10.09
2018-11-13T06:59:17.234Z,10.14
2018-11-13T07:01:45.424Z,10.08
2018-11-13T07:04:14.839Z,10.20
2018-11-13T07:06:43.017Z,10.21
2018-11-13T07:09:11.395Z,10.20
2018-11-13T07:11:39.968Z,10.13
2018-11-13T07:14:08.176Z,10.05
2018-11-13T07:16:36.375Z,10.10
2018-11-13T07:19:04.880Z,10.12
2018-11-13T07:21:33.822Z,10.01
2018-11-13T07:24:02.112Z,10.00
2018-11-13T07:26:30.779Z,10.03
2018-11-13T07:28:59.244Z,10.14
2018-11-13T07:31:27.467Z,10.27
2018-11-13T07:33:55.672Z,10.21
2018-11-13T07:36:23.887Z,10.18
2018-11-13T07:38:52.446Z,10.29
2018-11-13T07:41:20.826Z,10.33
2018-11-13T07:43:49.020Z,10.39
2018-11-13T07:46:17.336Z,10.47
2018-11-13T07:48:45.755Z,10.39
2018-11-13T07:51:14.004Z,10.51
2018-11-13T07:53:42.278Z,10.67
2018-11-13T07:56:22.590Z,10.69
2018-11-13T07:58:50.967Z,10.71
2018-11-13T08:01:19.167Z,10.58
2018-11-13T08:03:47.385Z,10.64
2018-11-13T08:06:15.696Z,10.54
2018-11-13T08:08:43.898Z,10.53
2018-11-13T08:11:12.159Z,10.52
2018-11-13T08:13:40.999Z,10.39
2018-11-13T08:16:09.111Z,10.43
2018-11-13T08:18:37.300Z,10.39
2018-11-13T08:21:05.569Z,10.33
2018-11-13T08:23:33.719Z,10.38
2018-11-13T08:26:02.011Z,10.48
2018-11-13T08:28:30.243Z,10.62
2018-11-13T08:30:58.435Z,10.69
2018-11-13T08:33:26.904Z,10.74
2018-11-13T08:35:55.224Z,10.76
2018-11-13T08:38:23.516Z,10.80
2018-11-13T08:40:52.852Z,10.88
2018-11-13T08:43:21.040Z,11.01
2018-11-13T08:45:49.231Z,11.08
2018-11-13T08:48:17.467Z,11.05
2018-11-13T08:50:45.734Z,11.06
2018-11-13T08:53:17.799Z,11.01
2018-11-13T08:55:46.721Z,11.01
2018-11-13T08:58:14.920Z,10.88
2018-11-13T09:00:43.106Z,10.91
2018-11-13T09:03:11.400Z,10.84
2018-11-13T09:05:39.603Z,10.83
2018-11-13T09:08:07.815Z,10.81
2018-11-13T09:10:36.011Z,10.82
2018-11-13T09:13:04.208Z,10.82
2018-11-13T09:15:32.873Z,10.83
2018-11-13T09:18:01.165Z,10.90
2018-11-13T09:20:29.323Z,11.08
2018-11-13T09:22:57.561Z,11.24
2018-11-13T09:25:26.927Z,11.24
2018-11-13T09:27:55.119Z,11.31
2018-11-13T09:30:23.522Z,11.44
2018-11-13T09:32:51.701Z,11.42
2018-11-13T09:35:20.144Z,11.46
2018-11-13T09:37:48.719Z,11.56
2018-11-13T09:40:19.075Z,11.53
2018-11-13T09:42:48.459Z,11.52
2018-11-13T09:45:17.099Z,11.40
2018-11-13T09:47:45.370Z,11.48
2018-11-13T09:50:15.230Z,11.45
2018-11-13T09:52:44.796Z,11.42
2018-11-13T09:55:14.451Z,11.41
2018-11-13T09:57:42.651Z,11.38
2018-11-13T10:00:15.402Z,11.56
2018-11-13T10:02:45.876Z,11.57
2018-11-13T10:05:14.073Z,11.44
2018-11-13T10:07:42.404Z,11.48
2018-11-13T10:10:11.517Z,11.56
2018-11-13T10:12:39.664Z,11.67
2018-11-13T10:15:11.196Z,11.71
2018-11-13T10:17:39.697Z,11.64
2018-11-13T10:20:08.894Z,11.62
2018-11-13T10:22:37.083Z,11.78
2018-11-13T10:25:06.271Z,11.95
2018-11-13T10:27:34.509Z,12.25
2018-11-13T10:30:02.703Z,12.27
2018-11-13T10:32:31.004Z,12.58
2018-11-13T10:34:59.228Z,12.61
2018-11-13T10:37:27.430Z,12.35
2018-11-13T10:39:55.632Z,12.16
2018-11-13T10:42:23.928Z,12.16
2018-11-13T10:44:52.371Z,11.97
2018-11-13T10:47:20.563Z,12.01
2018-11-13T10:49:48.809Z,12.17
2018-11-13T10:52:17.001Z,12.28
2018-11-13T10:54:45.308Z,12.21
2018-11-13T10:57:14.023Z,12.06
2018-11-13T10:59:42.247Z,12.07
2018-11-13T11:02:15.818Z,12.11
2018-11-13T11:04:47.746Z,12.25
2018-11-13T11:07:15.950Z,12.37
2018-11-13T11:09:44.719Z,12.32
2018-11-13T11:12:13.005Z,12.43
2018-11-13T11:14:41.190Z,12.40
2018-11-13T11:17:09.767Z,12.40
2018-11-13T11:19:38.037Z,12.76
2018-11-13T11:22:06.202Z,13.06
2018-11-13T11:24:34.388Z,12.89
2018-11-13T11:27:02.606Z,12.91
2018-11-13T11:29:30.879Z,13.19
2018-11-13T11:31:59.083Z,13.08
2018-11-13T11:34:27.308Z,12.79
2018-11-13T11:36:55.495Z,12.52
2018-11-13T11:39:23.694Z,12.20
2018-11-13T11:41:51.924Z,12.11
2018-11-13T11:44:20.211Z,12.07
2018-11-13T11:46:48.400Z,12.17
2018-11-13T11:49:16.634Z,12.41
2018-11-13T11:51:44.847Z,12.65
2018-11-13T11:54:13.049Z,12.51
2018-11-13T11:56:41.468Z,12.43
2018-11-13T11:59:09.795Z,12.41
2018-11-13T12:01:38.209Z,12.41
2018-11-13T12:04:06.645Z,12.69
2018-11-13T12:06:34.947Z,12.79
2018-11-13T12:09:03.380Z,13.03
2018-11-13T12:11:31.762Z,13.14
2018-11-13T12:14:00.183Z,13.30
2018-11-13T12:16:28.533Z,13.46
2018-11-13T12:18:56.828Z,13.43
2018-11-13T12:21:25.111Z,13.21
2018-11-13T12:23:53.767Z,13.11
2018-11-13T12:26:22.600Z,13.31
2018-11-13T12:28:50.796Z,12.92
2018-11-13T12:31:19.207Z,12.95
2018-11-13T12:33:47.732Z,12.99
2018-11-13T12:36:15.928Z,12.87
2018-11-13T12:38:44.888Z,12.76
2018-11-13T12:41:13.107Z,12.74
2018-11-13T12:43:41.312Z,12.79
2018-11-13T12:46:09.508Z,12.92
2018-11-13T12:48:37.829Z,12.82
2018-11-13T12:51:07.099Z,12.72
2018-11-13T12:53:36.291Z,12.62
2018-11-13T12:56:04.704Z,12.44
2018-11-13T12:58:33.261Z,12.25
2018-11-13T13:01:02.969Z,12.16
2018-11-13T13:03:31.162Z,12.19
2018-11-13T13:05:59.347Z,12.43
2018-11-13T13:08:27.599Z,12.56
2018-11-13T13:10:55.776Z,12.77
2018-11-13T13:13:23.978Z,12.78
2018-11-13T13:15:52.216Z,12.82
2018-11-13T13:18:20.412Z,12.88
2018-11-13T13:20:48.600Z,12.95
2018-11-13T13:23:16.922Z,12.93
2018-11-13T13:25:45.189Z,13.00
2018-11-13T13:28:13.431Z,13.07
2018-11-13T13:30:42.691Z,13.12
2018-11-13T13:33:11.353Z,12.93
2018-11-13T13:35:51.055Z,12.86
2018-11-13T13:38:19.276Z,12.82
2018-11-13T13:40:48.799Z,12.67
2018-11-13T13:43:22.596Z,12.44
2018-11-13T13:45:51.078Z,12.44
2018-11-13T13:48:19.991Z,12.41
2018-11-13T13:50:48.340Z,12.36
2018-11-13T13:53:17.456Z,12.39
2018-11-13T13:55:46.172Z,12.26
2018-11-13T13:58:15.128Z,12.31
2018-11-13T14:00:43.512Z,12.43
2018-11-13T14:03:12.408Z,12.42
2018-11-13T14:05:41.724Z,12.47
2018-11-13T14:08:10.903Z,12.44
2018-11-13T14:10:39.107Z,12.50
2018-11-13T14:13:07.582Z,12.48
2018-11-13T14:15:35.900Z,12.48
2018-11-13T14:18:04.024Z,12.49
2018-11-13T14:20:35.243Z,12.47
2018-11-13T14:23:03.463Z,12.52
2018-11-13T14:25:31.790Z,12.52
2018-11-13T14:28:00.195Z,12.47
2018-11-13T14:30:30.284Z,12.41
2018-11-13T14:33:01.246Z,12.35
2018-11-13T14:35:29.519Z,12.28
2018-11-13T14:37:57.991Z,12.17
2018-11-13T14:40:29.582Z,12.03
2018-11-13T14:42:58.011Z,11.97
2018-11-13T14:45:26.699Z,11.84
2018-11-13T14:47:55.015Z,11.87
2018-11-13T14:50:24.585Z,11.91
2018-11-13T14:52:53.163Z,11.98
2018-11-13T14:55:24.590Z,12.02
2018-11-13T14:57:53.204Z,12.07
2018-11-13T15:00:22.816Z,12.09
2018-11-13T15:02:51.996Z,12.16
2018-11-13T15:05:21.119Z,12.09
2018-11-13T15:07:50.566Z,11.98
2018-11-13T15:10:39.690Z,11.94
2018-11-13T15:13:08.451Z,11.78
2018-11-13T15:15:36.657Z,11.67
2018-11-13T15:18:05.248Z,11.65
2018-11-13T15:20:33.454Z,11.58
2018-11-13T15:23:01.739Z,11.53
2018-11-13T15:25:30.447Z,11.41
2018-11-13T15:27:58.638Z,11.36
2018-11-13T15:30:29.364Z,11.33
2018-11-13T15:33:02.221Z,11.19
2018-11-13T15:35:31.568Z,11.23
2018-11-13T15:37:59.763Z,11.13
2018-11-13T15:40:30.135Z,11.08
2018-11-13T15:42:58.384Z,11.02
2018-11-13T15:45:26.655Z,10.96
2018-11-13T15:47:55.844Z,10.97
2018-11-13T15:50:25.323Z,10.94
2018-11-13T15:52:53.584Z,10.88
2018-11-13T15:55:23.031Z,10.79
2018-11-13T15:57:51.390Z,10.78
2018-11-13T16:00:26.042Z,10.79
2018-11-13T16:02:54.820Z,10.67
2018-11-13T16:05:29.566Z,10.81
2018-11-13T16:07:58.790Z,10.80
2018-11-13T16:10:27.036Z,10.69
2018-11-13T16:12:55.379Z,10.62
2018-11-13T16:15:24.443Z,10.56
2018-11-13T16:17:53.409Z,10.49
2018-11-13T16:20:22.616Z,10.47
2018-11-13T16:22:50.819Z,10.34
2018-11-13T16:25:19.026Z,10.14
2018-11-13T16:27:47.228Z,9.94
2018-11-13T16:30:18.656Z,9.79
2018-11-13T16:32:47.583Z,9.62
2018-11-13T16:35:16.848Z,9.49
2018-11-13T16:37:46.660Z,9.25
2018-11-13T16:40:18.123Z,9.09
2018-11-13T16:42:47.012Z,8.98
2018-11-13T16:45:16.394Z,8.87
2018-11-13T16:47:44.890Z,8.80
2018-11-13T16:50:30.823Z,8.72
2018-11-13T16:52:59.398Z,8.69
2018-11-13T16:55:32.999Z,8.66
2018-11-13T16:58:02.528Z,8.59
2018-11-13T17:00:30.905Z,8.60
2018-11-13T17:02:59.156Z,8.63
2018-11-13T17:05:29.073Z,8.36
2018-11-13T17:07:57.196Z,8.24
2018-11-13T17:10:26.635Z,8.09
2018-11-13T17:12:55.232Z,7.94
2018-11-13T17:15:24.538Z,7.74
2018-11-13T17:17:53.622Z,7.44
2018-11-13T17:20:22.054Z,7.24
2018-11-13T17:22:50.570Z,7.18
2018-11-13T17:25:20.187Z,7.21
2018-11-13T17:27:49.640Z,7.25
2018-11-13T17:30:22.158Z,7.34
2018-11-13T17:32:51.063Z,7.45
2018-11-13T17:35:21.372Z,7.50
2018-11-13T17:37:50.312Z,7.66
2018-11-13T17:40:20.052Z,7.49
2018-11-13T17:42:49.066Z,7.15
2018-11-13T17:45:34.671Z,7.01
2018-11-13T17:48:04.990Z,6.82
2018-11-13T17:50:36.343Z,6.66
2018-11-13T17:53:05.242Z,6.62
2018-11-13T17:55:33.446Z,6.60
2018-11-13T17:58:03.136Z,6.47
2018-11-13T18:00:34.708Z,6.28
2018-11-13T18:03:03.662Z,6.16
2018-11-13T18:05:32.225Z,6.03
2018-11-13T18:08:01.349Z,5.97
2018-11-13T18:10:30.319Z,5.97
2018-11-13T18:12:59.706Z,5.92
2018-11-13T18:15:28.694Z,6.19
2018-11-13T18:17:56.932Z,6.04
2018-11-13T18:20:26.515Z,5.86
2018-11-13T18:22:54.702Z,5.83
2018-11-13T18:25:22.899Z,5.77
2018-11-13T18:27:52.526Z,5.71
2018-11-13T18:30:23.129Z,5.83
2018-11-13T18:32:51.542Z,5.72
2018-11-13T18:35:21.454Z,5.62
2018-11-13T18:37:50.888Z,5.50
2018-11-13T18:40:20.063Z,5.49
2018-11-13T18:42:49.276Z,5.47
2018-11-13T18:45:20.736Z,5.33
2018-11-13T18:47:49.024Z,5.19
2018-11-13T18:50:27.081Z,5.09
2018-11-13T18:52:55.323Z,5.03
2018-11-13T18:55:23.656Z,5.02
2018-11-13T18:57:52.294Z,4.98
2018-11-13T19:00:22.046Z,4.99
2018-11-13T19:02:50.247Z,5.18
2018-11-13T19:05:19.296Z,5.21
2018-11-13T19:07:47.495Z,5.13
2018-11-13T19:10:50.338Z,5.11
2018-11-13T19:13:21.001Z,5.04
2018-11-13T19:15:50.959Z,4.99
2018-11-13T19:18:20.623Z,4.94
2018-11-13T19:20:48.832Z,4.85
2018-11-13T19:23:17.278Z,4.76
2018-11-13T19:25:46.518Z,4.71
2018-11-13T19:28:15.038Z,4.66
2018-11-13T19:30:42.941Z,4.63
2018-11-13T19:33:11.228Z,4.57
2018-11-13T19:35:39.614Z,4.58
2018-11-13T19:38:08.562Z,4.60
2018-11-13T19:40:37.039Z,4.56
2018-11-13T19:43:06.934Z,4.45
2018-11-13T19:45:38.388Z,4.42
2018-11-13T19:48:06.574Z,4.38
2018-11-13T19:50:35.891Z,4.38
2018-11-13T19:53:04.223Z,4.45
2018-11-13T19:55:32.851Z,4.59
2018-11-13T19:58:01.099Z,4.56
2018-11-13T20:00:30.555Z,4.46
2018-11-13T20:03:00.844Z,4.33
2018-11-13T20:05:30.662Z,4.25
2018-11-13T20:07:58.907Z,4.22
2018-11-13T20:10:29.370Z,4.20
2018-11-13T20:12:58.887Z,4.22
2018-11-13T20:15:27.852Z,4.16
2018-11-13T20:17:56.040Z,4.07
2018-11-13T20:20:25.667Z,4.07
2018-11-13T20:22:54.319Z,4.04
2018-11-13T20:25:24.549Z,3.93
2018-11-13T20:27:53.844Z,3.78
2018-11-13T20:30:24.371Z,3.76
2018-11-13T20:32:52.611Z,3.75
2018-11-13T20:35:20.852Z,3.77
2018-11-13T20:37:49.811Z,3.74
2018-11-13T20:40:19.423Z,3.69
2018-11-13T20:42:49.757Z,3.70
2018-11-13T20:45:18.062Z,3.67
2018-11-13T20:47:46.255Z,3.36
2018-11-13T20:50:16.208Z,3.25
2018-11-13T20:52:44.603Z,3.34
2018-11-13T20:55:13.082Z,3.28
2018-11-13T20:57:41.303Z,3.27
2018-11-13T21:00:14.531Z,3.28
2018-11-13T21:02:42.936Z,3.14
2018-11-13T21:05:11.136Z,3.19
2018-11-13T21:07:39.431Z,3.22
2018-11-13T21:10:11.122Z,3.25
2018-11-13T21:12:39.603Z,3.20
2018-11-13T21:15:09.841Z,3.39
2018-11-13T21:17:38.920Z,3.17
2018-11-13T21:20:09.809Z,3.04
2018-11-13T21:22:38.234Z,2.98
2018-11-13T21:25:07.862Z,2.97
2018-11-13T21:27:36.033Z,2.97
2018-11-13T21:30:06.025Z,2.95
2018-11-13T21:32:34.923Z,3.01
2018-11-13T21:35:03.120Z,3.03
2018-11-13T21:37:31.430Z,3.03
2018-11-13T21:39:59.956Z,3.07
2018-11-13T21:42:28.144Z,3.12
2018-11-13T21:44:56.354Z,3.39
2018-11-13T21:47:24.568Z,3.28
2018-11-13T21:49:52.854Z,3.30
2018-11-13T21:52:21.339Z,3.25
2018-11-13T21:54:50.323Z,3.25
2018-11-13T21:57:22.672Z,3.25
2018-11-13T21:59:50.877Z,3.16
2018-11-13T22:02:19.091Z,3.01
2018-11-13T22:04:48.242Z,3.08
2018-11-13T22:07:16.633Z,3.19
2018-11-13T22:09:44.899Z,3.21
2018-11-13T22:12:13.210Z,3.19
2018-11-13T22:14:41.528Z,3.27
2018-11-13T22:17:09.725Z,3.31
2018-11-13T22:19:38.074Z,3.28
2018-11-13T22:22:06.372Z,3.32
2018-11-13T22:24:34.783Z,3.36
2018-11-13T22:27:03.298Z,3.32
2018-11-13T22:29:31.539Z,3.37
2018-11-13T22:32:00.187Z,3.41
2018-11-13T22:34:28.389Z,3.39
2018-11-13T22:36:56.610Z,3.41
2018-11-13T22:39:25.330Z,3.44
2018-11-13T22:41:53.531Z,3.46
2018-11-13T22:44:21.835Z,3.54
2018-11-13T22:46:50.104Z,3.58
2018-11-13T22:49:18.504Z,3.72
2018-11-13T22:51:47.167Z,3.78
2018-11-13T22:54:15.852Z,3.96
2018-11-13T22:56:44.206Z,4.03
2018-11-13T22:59:12.624Z,4.03
2018-11-13T23:01:40.961Z,4.05
2018-11-13T23:04:09.286Z,4.06
2018-11-13T23:06:37.629Z,4.10
2018-11-13T23:09:08.994Z,4.13
2018-11-13T23:11:37.262Z,4.20
2018-11-13T23:14:06.937Z,4.20
2018-11-13T23:16:35.446Z,4.11
2018-11-13T23:19:03.930Z,4.13
2018-11-13T23:21:32.144Z,4.13
2018-11-13T23:24:00.834Z,4.13
2018-11-13T23:26:29.140Z,4.20
2018-11-13T23:28:57.643Z,4.25
2018-11-13T23:31:25.905Z,4.29
2018-11-13T23:33:54.554Z,4.52
2018-11-13T23:36:22.491Z,4.53
2018-11-13T23:38:51.039Z,4.57
2018-11-13T23:41:19.291Z,4.52
2018-11-13T23:43:47.513Z,4.36
2018-11-13T23:46:15.811Z,4.35
2018-11-13T23:48:44.218Z,4.34
2018-11-13T23:51:12.419Z,4.26
2018-11-13T23:53:40.744Z,4.27
2018-11-13T23:56:08.959Z,4.32
2018-11-13T23:58:37.450Z,4.23
